sensor_id;sensor_type;location;lat;lon;timestamp;temperature;humidity
13808;DHT22;40769;51.512;5.494;2024-01-10T00:01:33;1.70;99.90
13808;DHT22;40769;51.512;5.494;2024-01-10T00:03:58;1.10;99.90
13808;DHT22;40769;51.512;5.494;2024-01-10T00:06:24;0.90;99.90
13808;DHT22;40769;51.512;5.494;2024-01-10T00:08:50;0.80;99.90
13808;DHT22;40769;51.512;5.494;2024-01-10T00:11:16;0.60;99.90
13808;DHT22;40769;51.512;5.494;2024-01-10T00:13:41;0.40;99.90
13808;DHT22;40769;51.512;5.494;2024-01-10T00:16:07;0.30;99.90
13808;DHT22;40769;51.512;5.494;2024-01-10T00:18:33;0.20;99.90
13808;DHT22;40769;51.512;5.494;2024-01-10T00:20:59;0.00;99.90
13808;DHT22;40769;51.512;5.494;2024-01-10T00:23:25;0.00;99.90
13808;DHT22;40769;51.512;5.494;2024-01-10T00:25:51;0.00;99.90
13808;DHT22;40769;51.512;5.494;2024-01-10T00:28:17;0.80;99.90
13808;DHT22;40769;51.512;5.494;2024-01-10T00:30:46;0.20;99.90
13808;DHT22;40769;51.512;5.494;2024-01-10T00:33:13;0.50;99.90
13808;DHT22;40769;51.512;5.494;2024-01-10T00:35:39;1.00;99.90
13808;DHT22;40769;51.512;5.494;2024-01-10T00:38:05;1.50;99.90
13808;DHT22;40769;51.512;5.494;2024-01-10T00:40:30;1.80;99.90
13808;DHT22;40769;51.512;5.494;2024-01-10T00:42:56;1.80;99.90
13808;DHT22;40769;51.512;5.494;2024-01-10T00:45:22;1.80;99.90
13808;DHT22;40769;51.512;5.494;2024-01-10T00:47:51;1.60;99.90
13808;DHT22;40769;51.512;5.494;2024-01-10T00:50:17;1.50;99.90
13808;DHT22;40769;51.512;5.494;2024-01-10T00:52:44;1.50;99.90
13808;DHT22;40769;51.512;5.494;2024-01-10T00:55:10;1.50;99.90
13808;DHT22;40769;51.512;5.494;2024-01-10T00:57:35;1.50;99.90
13808;DHT22;40769;51.512;5.494;2024-01-10T01:00:04;1.50;99.90
13808;DHT22;40769;51.512;5.494;2024-01-10T01:02:30;1.80;99.90
13808;DHT22;40769;51.512;5.494;2024-01-10T01:04:56;1.70;99.90
13808;DHT22;40769;51.512;5.494;2024-01-10T01:07:21;1.60;99.90
13808;DHT22;40769;51.512;5.494;2024-01-10T01:09:47;1.80;99.90
13808;DHT22;40769;51.512;5.494;2024-01-10T01:12:12;1.70;99.90
13808;DHT22;40769;51.512;5.494;2024-01-10T01:14:38;1.80;99.90
13808;DHT22;40769;51.512;5.494;2024-01-10T01:17:03;1.80;99.90
13808;DHT22;40769;51.512;5.494;2024-01-10T01:19:29;2.20;99.90
13808;DHT22;40769;51.512;5.494;2024-01-10T01:21:54;2.50;99.90
13808;DHT22;40769;51.512;5.494;2024-01-10T01:24:20;2.60;99.90
13808;DHT22;40769;51.512;5.494;2024-01-10T01:26:46;2.40;99.90
13808;DHT22;40769;51.512;5.494;2024-01-10T01:29:11;2.10;99.90
13808;DHT22;40769;51.512;5.494;2024-01-10T01:31:37;1.80;99.90
13808;DHT22;40769;51.512;5.494;2024-01-10T01:34:06;1.50;99.90
13808;DHT22;40769;51.512;5.494;2024-01-10T01:36:32;1.20;99.90
13808;DHT22;40769;51.512;5.494;2024-01-10T01:38:57;1.00;99.90
13808;DHT22;40769;51.512;5.494;2024-01-10T01:41:23;0.70;99.90
13808;DHT22;40769;51.512;5.494;2024-01-10T01:43:49;0.60;99.90
13808;DHT22;40769;51.512;5.494;2024-01-10T01:46:14;0.40;99.90
13808;DHT22;40769;51.512;5.494;2024-01-10T01:48:41;0.30;99.90
13808;DHT22;40769;51.512;5.494;2024-01-10T01:51:09;0.20;99.90
13808;DHT22;40769;51.512;5.494;2024-01-10T01:53:36;0.20;99.90
13808;DHT22;40769;51.512;5.494;2024-01-10T01:56:05;0.20;99.90
13808;DHT22;40769;51.512;5.494;2024-01-10T01:58:31;0.20;99.90
13808;DHT22;40769;51.512;5.494;2024-01-10T02:00:57;0.30;99.90
13808;DHT22;40769;51.512;5.494;2024-01-10T02:03:24;0.60;99.90
13808;DHT22;40769;51.512;5.494;2024-01-10T02:05:49;1.10;99.90
13808;DHT22;40769;51.512;5.494;2024-01-10T02:08:15;1.50;99.90
13808;DHT22;40769;51.512;5.494;2024-01-10T02:10:41;1.70;99.90
13808;DHT22;40769;51.512;5.494;2024-01-10T02:13:07;1.70;99.90
13808;DHT22;40769;51.512;5.494;2024-01-10T02:15:35;1.60;99.90
13808;DHT22;40769;51.512;5.494;2024-01-10T02:18:01;1.70;99.90
13808;DHT22;40769;51.512;5.494;2024-01-10T02:20:27;1.40;99.90
13808;DHT22;40769;51.512;5.494;2024-01-10T02:22:52;1.30;99.90
13808;DHT22;40769;51.512;5.494;2024-01-10T02:25:18;1.30;99.90
13808;DHT22;40769;51.512;5.494;2024-01-10T02:27:44;1.50;99.90
13808;DHT22;40769;51.512;5.494;2024-01-10T02:30:10;1.70;99.90
13808;DHT22;40769;51.512;5.494;2024-01-10T02:32:36;1.90;99.90
13808;DHT22;40769;51.512;5.494;2024-01-10T02:35:02;2.60;99.90
13808;DHT22;40769;51.512;5.494;2024-01-10T02:37:28;1.90;99.90
13808;DHT22;40769;51.512;5.494;2024-01-10T02:39:54;2.10;99.90
13808;DHT22;40769;51.512;5.494;2024-01-10T02:42:19;2.20;99.90
13808;DHT22;40769;51.512;5.494;2024-01-10T02:44:45;2.00;99.90
13808;DHT22;40769;51.512;5.494;2024-01-10T02:47:12;2.50;99.90
13808;DHT22;40769;51.512;5.494;2024-01-10T02:49:37;3.70;99.90
13808;DHT22;40769;51.512;5.494;2024-01-10T02:52:03;3.30;99.90
13808;DHT22;40769;51.512;5.494;2024-01-10T02:54:29;3.60;99.90
13808;DHT22;40769;51.512;5.494;2024-01-10T02:56:55;3.70;99.90
13808;DHT22;40769;51.512;5.494;2024-01-10T02:59:20;3.80;99.90
13808;DHT22;40769;51.512;5.494;2024-01-10T03:01:46;3.40;99.90
13808;DHT22;40769;51.512;5.494;2024-01-10T03:04:12;3.30;99.90
13808;DHT22;40769;51.512;5.494;2024-01-10T03:06:37;3.00;99.90
13808;DHT22;40769;51.512;5.494;2024-01-10T03:09:03;2.90;99.90
13808;DHT22;40769;51.512;5.494;2024-01-10T03:11:29;2.50;99.90
13808;DHT22;40769;51.512;5.494;2024-01-10T03:14:09;2.30;99.90
13808;DHT22;40769;51.512;5.494;2024-01-10T03:16:36;1.80;99.90
13808;DHT22;40769;51.512;5.494;2024-01-10T03:19:02;1.50;99.90
13808;DHT22;40769;51.512;5.494;2024-01-10T03:21:27;1.20;99.90
13808;DHT22;40769;51.512;5.494;2024-01-10T03:23:55;1.00;99.90
13808;DHT22;40769;51.512;5.494;2024-01-10T03:26:22;1.00;99.90
13808;DHT22;40769;51.512;5.494;2024-01-10T03:28:47;0.90;99.90
13808;DHT22;40769;51.512;5.494;2024-01-10T03:31:14;1.60;99.90
13808;DHT22;40769;51.512;5.494;2024-01-10T03:33:39;1.40;99.90
13808;DHT22;40769;51.512;5.494;2024-01-10T03:36:06;1.80;99.90
13808;DHT22;40769;51.512;5.494;2024-01-10T03:38:31;2.10;99.90
13808;DHT22;40769;51.512;5.494;2024-01-10T03:40:57;2.10;99.90
13808;DHT22;40769;51.512;5.494;2024-01-10T03:43:23;2.00;99.90
13808;DHT22;40769;51.512;5.494;2024-01-10T03:45:48;1.80;99.90
13808;DHT22;40769;51.512;5.494;2024-01-10T03:48:14;1.60;99.90
13808;DHT22;40769;51.512;5.494;2024-01-10T03:50:40;1.40;99.90
13808;DHT22;40769;51.512;5.494;2024-01-10T03:53:05;1.30;99.90
13808;DHT22;40769;51.512;5.494;2024-01-10T03:55:31;1.10;99.90
13808;DHT22;40769;51.512;5.494;2024-01-10T03:57:57;0.90;99.90
13808;DHT22;40769;51.512;5.494;2024-01-10T04:00:22;0.80;99.90
13808;DHT22;40769;51.512;5.494;2024-01-10T04:02:48;0.70;99.90
13808;DHT22;40769;51.512;5.494;2024-01-10T04:05:13;0.60;99.90
13808;DHT22;40769;51.512;5.494;2024-01-10T04:07:40;0.60;99.90
13808;DHT22;40769;51.512;5.494;2024-01-10T04:10:10;0.50;99.90
13808;DHT22;40769;51.512;5.494;2024-01-10T04:12:39;0.60;99.90
13808;DHT22;40769;51.512;5.494;2024-01-10T04:15:05;0.50;99.90
13808;DHT22;40769;51.512;5.494;2024-01-10T04:17:31;0.60;99.90
13808;DHT22;40769;51.512;5.494;2024-01-10T04:19:57;1.00;99.90
13808;DHT22;40769;51.512;5.494;2024-01-10T04:22:24;1.70;99.90
13808;DHT22;40769;51.512;5.494;2024-01-10T04:24:49;2.50;99.90
13808;DHT22;40769;51.512;5.494;2024-01-10T04:27:15;1.50;99.90
13808;DHT22;40769;51.512;5.494;2024-01-10T04:29:41;1.40;99.90
13808;DHT22;40769;51.512;5.494;2024-01-10T04:32:07;1.50;99.90
13808;DHT22;40769;51.512;5.494;2024-01-10T04:34:33;1.90;99.90
13808;DHT22;40769;51.512;5.494;2024-01-10T04:36:59;0.70;99.90
13808;DHT22;40769;51.512;5.494;2024-01-10T04:39:25;0.50;99.90
13808;DHT22;40769;51.512;5.494;2024-01-10T04:41:50;1.50;99.90
13808;DHT22;40769;51.512;5.494;2024-01-10T04:44:16;0.20;99.90
13808;DHT22;40769;51.512;5.494;2024-01-10T04:46:41;0.10;99.90
13808;DHT22;40769;51.512;5.494;2024-01-10T04:49:07;0.50;99.90
13808;DHT22;40769;51.512;5.494;2024-01-10T04:51:33;0.00;99.90
13808;DHT22;40769;51.512;5.494;2024-01-10T04:53:59;-0.10;99.90
13808;DHT22;40769;51.512;5.494;2024-01-10T04:56:25;-0.10;99.90
13808;DHT22;40769;51.512;5.494;2024-01-10T04:58:51;-0.20;99.90
13808;DHT22;40769;51.512;5.494;2024-01-10T05:01:17;-0.20;99.90
13808;DHT22;40769;51.512;5.494;2024-01-10T05:03:43;-0.20;99.90
13808;DHT22;40769;51.512;5.494;2024-01-10T05:06:08;-0.20;99.90
13808;DHT22;40769;51.512;5.494;2024-01-10T05:08:34;-0.30;99.90
13808;DHT22;40769;51.512;5.494;2024-01-10T05:10:59;-0.40;99.90
13808;DHT22;40769;51.512;5.494;2024-01-10T05:13:25;-0.40;99.90
13808;DHT22;40769;51.512;5.494;2024-01-10T05:15:51;-0.40;99.90
13808;DHT22;40769;51.512;5.494;2024-01-10T05:18:17;-0.40;99.90
13808;DHT22;40769;51.512;5.494;2024-01-10T05:20:44;-0.40;99.90
13808;DHT22;40769;51.512;5.494;2024-01-10T05:23:09;-0.30;99.90
13808;DHT22;40769;51.512;5.494;2024-01-10T05:25:36;-0.20;99.90
13808;DHT22;40769;51.512;5.494;2024-01-10T05:28:01;0.00;99.90
13808;DHT22;40769;51.512;5.494;2024-01-10T05:30:27;0.10;99.90
13808;DHT22;40769;51.512;5.494;2024-01-10T05:32:53;0.10;99.90
13808;DHT22;40769;51.512;5.494;2024-01-10T05:35:18;0.20;99.90
13808;DHT22;40769;51.512;5.494;2024-01-10T05:37:47;0.20;99.90
13808;DHT22;40769;51.512;5.494;2024-01-10T05:40:12;0.20;99.90
13808;DHT22;40769;51.512;5.494;2024-01-10T05:42:38;0.20;99.90
13808;DHT22;40769;51.512;5.494;2024-01-10T05:45:04;0.30;99.90
13808;DHT22;40769;51.512;5.494;2024-01-10T05:47:31;0.70;99.90
13808;DHT22;40769;51.512;5.494;2024-01-10T05:49:56;1.10;99.90
13808;DHT22;40769;51.512;5.494;2024-01-10T05:52:22;1.40;99.90
13808;DHT22;40769;51.512;5.494;2024-01-10T05:54:48;2.70;99.90
13808;DHT22;40769;51.512;5.494;2024-01-10T05:57:14;1.50;99.90
13808;DHT22;40769;51.512;5.494;2024-01-10T05:59:40;1.40;99.90
13808;DHT22;40769;51.512;5.494;2024-01-10T06:02:05;1.20;99.90
13808;DHT22;40769;51.512;5.494;2024-01-10T06:04:31;1.00;99.90
13808;DHT22;40769;51.512;5.494;2024-01-10T06:07:00;0.70;99.90
13808;DHT22;40769;51.512;5.494;2024-01-10T06:09:26;0.50;99.90
13808;DHT22;40769;51.512;5.494;2024-01-10T06:11:52;0.40;99.90
13808;DHT22;40769;51.512;5.494;2024-01-10T06:14:18;0.30;99.90
13808;DHT22;40769;51.512;5.494;2024-01-10T06:16:44;0.20;99.90
13808;DHT22;40769;51.512;5.494;2024-01-10T06:19:11;0.10;99.90
13808;DHT22;40769;51.512;5.494;2024-01-10T06:21:37;0.00;99.90
13808;DHT22;40769;51.512;5.494;2024-01-10T06:24:03;-0.10;99.90
13808;DHT22;40769;51.512;5.494;2024-01-10T06:26:28;-0.10;99.90
13808;DHT22;40769;51.512;5.494;2024-01-10T06:28:54;-0.10;99.90
13808;DHT22;40769;51.512;5.494;2024-01-10T06:31:19;-0.10;99.90
13808;DHT22;40769;51.512;5.494;2024-01-10T06:33:46;0.00;99.90
13808;DHT22;40769;51.512;5.494;2024-01-10T06:36:11;0.10;99.90
13808;DHT22;40769;51.512;5.494;2024-01-10T06:38:39;0.10;99.90
13808;DHT22;40769;51.512;5.494;2024-01-10T06:41:10;0.20;99.90
13808;DHT22;40769;51.512;5.494;2024-01-10T06:43:37;0.30;99.90
13808;DHT22;40769;51.512;5.494;2024-01-10T06:46:02;0.30;99.90
13808;DHT22;40769;51.512;5.494;2024-01-10T06:48:29;0.40;99.90
13808;DHT22;40769;51.512;5.494;2024-01-10T06:50:55;0.50;99.90
13808;DHT22;40769;51.512;5.494;2024-01-10T06:53:21;0.60;99.90
13808;DHT22;40769;51.512;5.494;2024-01-10T06:55:47;0.70;99.90
13808;DHT22;40769;51.512;5.494;2024-01-10T06:58:12;0.70;99.90
13808;DHT22;40769;51.512;5.494;2024-01-10T07:00:38;0.70;99.90
13808;DHT22;40769;51.512;5.494;2024-01-10T07:03:04;0.70;99.90
13808;DHT22;40769;51.512;5.494;2024-01-10T07:05:30;0.70;99.90
13808;DHT22;40769;51.512;5.494;2024-01-10T07:07:58;0.80;99.90
13808;DHT22;40769;51.512;5.494;2024-01-10T07:10:24;0.90;99.90
13808;DHT22;40769;51.512;5.494;2024-01-10T07:12:53;1.00;99.90
13808;DHT22;40769;51.512;5.494;2024-01-10T07:15:19;1.10;99.90
13808;DHT22;40769;51.512;5.494;2024-01-10T07:17:45;1.30;99.90
13808;DHT22;40769;51.512;5.494;2024-01-10T07:20:11;1.60;99.90
13808;DHT22;40769;51.512;5.494;2024-01-10T07:22:37;2.70;99.90
13808;DHT22;40769;51.512;5.494;2024-01-10T07:25:10;2.10;99.90
13808;DHT22;40769;51.512;5.494;2024-01-10T07:27:35;2.30;99.90
13808;DHT22;40769;51.512;5.494;2024-01-10T07:30:05;2.50;99.90
13808;DHT22;40769;51.512;5.494;2024-01-10T07:32:37;2.80;99.90
13808;DHT22;40769;51.512;5.494;2024-01-10T07:35:02;3.20;99.90
13808;DHT22;40769;51.512;5.494;2024-01-10T07:37:28;3.50;99.90
13808;DHT22;40769;51.512;5.494;2024-01-10T07:39:54;3.80;99.90
13808;DHT22;40769;51.512;5.494;2024-01-10T07:42:19;4.00;99.90
13808;DHT22;40769;51.512;5.494;2024-01-10T07:44:45;4.30;99.90
13808;DHT22;40769;51.512;5.494;2024-01-10T07:47:10;4.70;99.90
13808;DHT22;40769;51.512;5.494;2024-01-10T07:49:36;5.60;99.90
13808;DHT22;40769;51.512;5.494;2024-01-10T07:52:06;5.10;99.90
13808;DHT22;40769;51.512;5.494;2024-01-10T07:54:31;5.10;99.90
13808;DHT22;40769;51.512;5.494;2024-01-10T07:56:58;4.70;99.90
13808;DHT22;40769;51.512;5.494;2024-01-10T07:59:23;4.30;99.90
13808;DHT22;40769;51.512;5.494;2024-01-10T08:02:00;3.80;99.90
13808;DHT22;40769;51.512;5.494;2024-01-10T08:04:26;3.30;99.90
13808;DHT22;40769;51.512;5.494;2024-01-10T08:06:53;3.20;99.90
13808;DHT22;40769;51.512;5.494;2024-01-10T08:09:19;2.50;99.90
13808;DHT22;40769;51.512;5.494;2024-01-10T08:11:45;2.30;99.90
13808;DHT22;40769;51.512;5.494;2024-01-10T08:14:11;2.00;99.90
13808;DHT22;40769;51.512;5.494;2024-01-10T08:16:37;1.80;99.90
13808;DHT22;40769;51.512;5.494;2024-01-10T08:19:03;1.60;99.90
13808;DHT22;40769;51.512;5.494;2024-01-10T08:21:28;1.50;99.90
13808;DHT22;40769;51.512;5.494;2024-01-10T08:23:54;1.50;99.90
13808;DHT22;40769;51.512;5.494;2024-01-10T08:26:19;1.40;99.90
13808;DHT22;40769;51.512;5.494;2024-01-10T08:28:45;1.60;99.90
13808;DHT22;40769;51.512;5.494;2024-01-10T08:31:11;1.60;99.90
13808;DHT22;40769;51.512;5.494;2024-01-10T08:33:38;1.60;99.90
13808;DHT22;40769;51.512;5.494;2024-01-10T08:36:04;1.60;99.90
13808;DHT22;40769;51.512;5.494;2024-01-10T08:38:30;1.60;99.90
13808;DHT22;40769;51.512;5.494;2024-01-10T08:40:56;1.80;99.90
13808;DHT22;40769;51.512;5.494;2024-01-10T08:43:22;1.80;99.90
13808;DHT22;40769;51.512;5.494;2024-01-10T08:45:48;2.00;99.90
13808;DHT22;40769;51.512;5.494;2024-01-10T08:48:13;2.20;99.90
13808;DHT22;40769;51.512;5.494;2024-01-10T08:50:39;2.30;99.90
13808;DHT22;40769;51.512;5.494;2024-01-10T08:53:05;2.40;99.90
13808;DHT22;40769;51.512;5.494;2024-01-10T08:55:31;2.50;99.90
13808;DHT22;40769;51.512;5.494;2024-01-10T08:57:57;2.70;99.90
13808;DHT22;40769;51.512;5.494;2024-01-10T09:00:23;2.80;99.90
13808;DHT22;40769;51.512;5.494;2024-01-10T09:02:50;2.80;99.90
13808;DHT22;40769;51.512;5.494;2024-01-10T09:05:15;3.10;99.90
13808;DHT22;40769;51.512;5.494;2024-01-10T09:07:41;3.00;99.90
13808;DHT22;40769;51.512;5.494;2024-01-10T09:10:07;3.10;99.90
13808;DHT22;40769;51.512;5.494;2024-01-10T09:12:34;3.10;99.90
13808;DHT22;40769;51.512;5.494;2024-01-10T09:15:00;3.20;99.90
13808;DHT22;40769;51.512;5.494;2024-01-10T09:17:26;3.30;99.90
13808;DHT22;40769;51.512;5.494;2024-01-10T09:19:53;3.40;99.90
13808;DHT22;40769;51.512;5.494;2024-01-10T09:22:19;3.50;99.90
13808;DHT22;40769;51.512;5.494;2024-01-10T09:24:44;3.70;99.90
13808;DHT22;40769;51.512;5.494;2024-01-10T09:27:10;3.90;99.90
13808;DHT22;40769;51.512;5.494;2024-01-10T09:29:36;5.30;99.90
13808;DHT22;40769;51.512;5.494;2024-01-10T09:32:02;4.20;99.90
13808;DHT22;40769;51.512;5.494;2024-01-10T09:34:28;4.30;99.90
13808;DHT22;40769;51.512;5.494;2024-01-10T09:36:54;4.60;99.90
13808;DHT22;40769;51.512;5.494;2024-01-10T09:39:19;4.50;99.90
13808;DHT22;40769;51.512;5.494;2024-01-10T09:41:49;4.40;99.90
13808;DHT22;40769;51.512;5.494;2024-01-10T09:44:17;4.50;99.90
13808;DHT22;40769;51.512;5.494;2024-01-10T09:46:53;4.50;99.90
13808;DHT22;40769;51.512;5.494;2024-01-10T09:49:19;4.80;99.90
13808;DHT22;40769;51.512;5.494;2024-01-10T09:51:49;4.60;99.90
13808;DHT22;40769;51.512;5.494;2024-01-10T09:54:15;4.60;99.90
13808;DHT22;40769;51.512;5.494;2024-01-10T09:56:42;4.70;99.90
13808;DHT22;40769;51.512;5.494;2024-01-10T09:59:07;4.80;99.90
13808;DHT22;40769;51.512;5.494;2024-01-10T10:01:37;4.90;99.90
13808;DHT22;40769;51.512;5.494;2024-01-10T10:04:05;5.00;99.90
13808;DHT22;40769;51.512;5.494;2024-01-10T10:06:33;5.10;99.90
13808;DHT22;40769;51.512;5.494;2024-01-10T10:08:59;5.20;99.90
13808;DHT22;40769;51.512;5.494;2024-01-10T10:11:25;5.30;99.90
13808;DHT22;40769;51.512;5.494;2024-01-10T10:13:51;5.40;99.90
13808;DHT22;40769;51.512;5.494;2024-01-10T10:16:23;5.50;99.90
13808;DHT22;40769;51.512;5.494;2024-01-10T10:18:50;6.50;99.90
13808;DHT22;40769;51.512;5.494;2024-01-10T10:21:18;5.80;99.90
13808;DHT22;40769;51.512;5.494;2024-01-10T10:23:58;5.90;99.90
13808;DHT22;40769;51.512;5.494;2024-01-10T10:26:23;6.00;99.90
13808;DHT22;40769;51.512;5.494;2024-01-10T10:28:51;5.90;99.90
13808;DHT22;40769;51.512;5.494;2024-01-10T10:31:20;6.20;99.90
13808;DHT22;40769;51.512;5.494;2024-01-10T10:33:47;6.00;99.90
13808;DHT22;40769;51.512;5.494;2024-01-10T10:36:14;5.70;99.90
13808;DHT22;40769;51.512;5.494;2024-01-10T10:38:40;5.80;99.90
13808;DHT22;40769;51.512;5.494;2024-01-10T10:41:06;5.70;99.90
13808;DHT22;40769;51.512;5.494;2024-01-10T10:43:38;5.60;99.90
13808;DHT22;40769;51.512;5.494;2024-01-10T10:46:05;5.60;99.90
13808;DHT22;40769;51.512;5.494;2024-01-10T10:48:49;5.60;99.90
13808;DHT22;40769;51.512;5.494;2024-01-10T10:51:29;5.70;99.90
13808;DHT22;40769;51.512;5.494;2024-01-10T10:53:56;6.80;99.90
13808;DHT22;40769;51.512;5.494;2024-01-10T10:56:23;6.00;99.90
13808;DHT22;40769;51.512;5.494;2024-01-10T10:58:49;6.20;99.90
13808;DHT22;40769;51.512;5.494;2024-01-10T11:01:16;6.40;99.90
13808;DHT22;40769;51.512;5.494;2024-01-10T11:03:42;6.80;99.90
13808;DHT22;40769;51.512;5.494;2024-01-10T11:06:10;7.00;99.90
13808;DHT22;40769;51.512;5.494;2024-01-10T11:08:46;7.30;99.90
13808;DHT22;40769;51.512;5.494;2024-01-10T11:17:08;7.00;99.90
13808;DHT22;40769;51.512;5.494;2024-01-10T11:25:11;6.70;99.90
13808;DHT22;40769;51.512;5.494;2024-01-10T11:27:37;6.60;99.90
13808;DHT22;40769;51.512;5.494;2024-01-10T11:30:03;6.60;99.90
13808;DHT22;40769;51.512;5.494;2024-01-10T11:32:32;6.60;99.90
13808;DHT22;40769;51.512;5.494;2024-01-10T11:35:00;6.60;99.90
13808;DHT22;40769;51.512;5.494;2024-01-10T11:37:39;6.70;99.90
13808;DHT22;40769;51.512;5.494;2024-01-10T11:40:08;7.40;99.90
13808;DHT22;40769;51.512;5.494;2024-01-10T11:42:46;6.90;99.90
13808;DHT22;40769;51.512;5.494;2024-01-10T11:45:36;7.00;99.90
13808;DHT22;40769;51.512;5.494;2024-01-10T11:48:02;7.30;99.90
13808;DHT22;40769;51.512;5.494;2024-01-10T11:50:28;7.60;99.90
13808;DHT22;40769;51.512;5.494;2024-01-10T11:52:56;7.70;99.90
13808;DHT22;40769;51.512;5.494;2024-01-10T11:55:47;7.70;99.90
13808;DHT22;40769;51.512;5.494;2024-01-10T11:58:13;7.50;99.90
13808;DHT22;40769;51.512;5.494;2024-01-10T12:00:40;7.30;99.90
13808;DHT22;40769;51.512;5.494;2024-01-10T12:03:07;7.00;99.90
13808;DHT22;40769;51.512;5.494;2024-01-10T12:05:37;6.90;99.90
13808;DHT22;40769;51.512;5.494;2024-01-10T12:08:07;6.80;99.90
13808;DHT22;40769;51.512;5.494;2024-01-10T12:10:33;6.90;99.90
13808;DHT22;40769;51.512;5.494;2024-01-10T12:13:03;7.20;99.90
13808;DHT22;40769;51.512;5.494;2024-01-10T12:15:29;6.80;99.90
13808;DHT22;40769;51.512;5.494;2024-01-10T12:17:55;6.80;99.90
13808;DHT22;40769;51.512;5.494;2024-01-10T12:20:21;7.70;99.90
13808;DHT22;40769;51.512;5.494;2024-01-10T12:22:47;6.60;99.90
13808;DHT22;40769;51.512;5.494;2024-01-10T12:25:12;6.50;99.90
13808;DHT22;40769;51.512;5.494;2024-01-10T12:27:38;6.50;99.90
13808;DHT22;40769;51.512;5.494;2024-01-10T12:30:05;6.40;99.90
13808;DHT22;40769;51.512;5.494;2024-01-10T12:32:31;6.50;99.90
13808;DHT22;40769;51.512;5.494;2024-01-10T12:35:02;6.60;99.90
13808;DHT22;40769;51.512;5.494;2024-01-10T12:37:31;6.90;99.90
13808;DHT22;40769;51.512;5.494;2024-01-10T12:39:59;7.10;99.90
13808;DHT22;40769;51.512;5.494;2024-01-10T12:42:25;7.70;99.90
13808;DHT22;40769;51.512;5.494;2024-01-10T12:44:50;7.40;99.90
13808;DHT22;40769;51.512;5.494;2024-01-10T12:47:24;7.50;99.90
13808;DHT22;40769;51.512;5.494;2024-01-10T12:49:50;7.80;99.90
13808;DHT22;40769;51.512;5.494;2024-01-10T12:52:16;7.90;99.90
13808;DHT22;40769;51.512;5.494;2024-01-10T12:54:42;7.90;99.90
13808;DHT22;40769;51.512;5.494;2024-01-10T12:57:08;7.80;99.90
13808;DHT22;40769;51.512;5.494;2024-01-10T12:59:33;8.10;99.90
13808;DHT22;40769;51.512;5.494;2024-01-10T13:01:59;7.60;99.90
13808;DHT22;40769;51.512;5.494;2024-01-10T13:04:25;8.00;99.90
13808;DHT22;40769;51.512;5.494;2024-01-10T13:06:51;7.50;99.90
13808;DHT22;40769;51.512;5.494;2024-01-10T13:09:17;7.50;99.90
13808;DHT22;40769;51.512;5.494;2024-01-10T13:11:43;7.60;99.90
13808;DHT22;40769;51.512;5.494;2024-01-10T13:14:08;7.70;99.90
13808;DHT22;40769;51.512;5.494;2024-01-10T13:16:35;7.40;99.90
13808;DHT22;40769;51.512;5.494;2024-01-10T13:19:00;7.30;99.90
13808;DHT22;40769;51.512;5.494;2024-01-10T13:21:26;7.30;99.90
13808;DHT22;40769;51.512;5.494;2024-01-10T13:23:52;7.10;99.90
13808;DHT22;40769;51.512;5.494;2024-01-10T13:26:18;7.00;99.90
13808;DHT22;40769;51.512;5.494;2024-01-10T13:28:43;6.90;99.90
13808;DHT22;40769;51.512;5.494;2024-01-10T13:31:09;7.40;99.90
13808;DHT22;40769;51.512;5.494;2024-01-10T13:33:35;7.00;99.90
13808;DHT22;40769;51.512;5.494;2024-01-10T13:36:02;7.10;99.90
13808;DHT22;40769;51.512;5.494;2024-01-10T13:38:28;7.30;99.90
13808;DHT22;40769;51.512;5.494;2024-01-10T13:40:54;7.40;99.90
13808;DHT22;40769;51.512;5.494;2024-01-10T13:43:19;7.50;99.90
13808;DHT22;40769;51.512;5.494;2024-01-10T13:45:45;8.40;99.90
13808;DHT22;40769;51.512;5.494;2024-01-10T13:48:10;7.60;99.90
13808;DHT22;40769;51.512;5.494;2024-01-10T13:50:36;7.70;99.90
13808;DHT22;40769;51.512;5.494;2024-01-10T13:53:02;7.90;99.90
13808;DHT22;40769;51.512;5.494;2024-01-10T13:55:29;8.00;99.90
13808;DHT22;40769;51.512;5.494;2024-01-10T13:57:55;8.00;99.90
13808;DHT22;40769;51.512;5.494;2024-01-10T14:00:22;7.90;99.90
13808;DHT22;40769;51.512;5.494;2024-01-10T14:02:47;7.80;99.90
13808;DHT22;40769;51.512;5.494;2024-01-10T14:05:13;7.90;99.90
13808;DHT22;40769;51.512;5.494;2024-01-10T14:07:39;8.40;99.90
13808;DHT22;40769;51.512;5.494;2024-01-10T14:10:05;8.00;99.90
13808;DHT22;40769;51.512;5.494;2024-01-10T14:12:31;8.00;99.90
13808;DHT22;40769;51.512;5.494;2024-01-10T14:14:57;8.00;99.90
13808;DHT22;40769;51.512;5.494;2024-01-10T14:17:25;8.00;99.90
13808;DHT22;40769;51.512;5.494;2024-01-10T14:19:51;8.00;99.90
13808;DHT22;40769;51.512;5.494;2024-01-10T14:22:17;8.00;99.90
13808;DHT22;40769;51.512;5.494;2024-01-10T14:24:43;8.00;99.90
13808;DHT22;40769;51.512;5.494;2024-01-10T14:27:09;8.00;99.90
13808;DHT22;40769;51.512;5.494;2024-01-10T14:29:35;8.00;99.90
13808;DHT22;40769;51.512;5.494;2024-01-10T14:32:01;8.50;99.90
13808;DHT22;40769;51.512;5.494;2024-01-10T14:34:27;8.50;99.90
13808;DHT22;40769;51.512;5.494;2024-01-10T14:36:52;8.70;99.90
13808;DHT22;40769;51.512;5.494;2024-01-10T14:39:18;8.60;99.90
13808;DHT22;40769;51.512;5.494;2024-01-10T14:41:44;9.00;99.90
13808;DHT22;40769;51.512;5.494;2024-01-10T14:44:10;8.40;99.90
13808;DHT22;40769;51.512;5.494;2024-01-10T14:46:35;8.20;99.90
13808;DHT22;40769;51.512;5.494;2024-01-10T14:49:01;8.10;99.90
13808;DHT22;40769;51.512;5.494;2024-01-10T14:51:27;8.20;99.90
13808;DHT22;40769;51.512;5.494;2024-01-10T14:53:53;8.20;99.90
13808;DHT22;40769;51.512;5.494;2024-01-10T14:56:18;8.10;99.90
13808;DHT22;40769;51.512;5.494;2024-01-10T14:58:44;8.00;99.90
13808;DHT22;40769;51.512;5.494;2024-01-10T15:01:10;7.90;99.90
13808;DHT22;40769;51.512;5.494;2024-01-10T15:03:36;7.70;99.90
13808;DHT22;40769;51.512;5.494;2024-01-10T15:06:04;7.50;99.90
13808;DHT22;40769;51.512;5.494;2024-01-10T15:08:30;7.20;99.90
13808;DHT22;40769;51.512;5.494;2024-01-10T15:10:56;6.90;99.90
13808;DHT22;40769;51.512;5.494;2024-01-10T15:13:22;6.70;99.90
13808;DHT22;40769;51.512;5.494;2024-01-10T15:15:48;6.70;99.90
13808;DHT22;40769;51.512;5.494;2024-01-10T15:18:13;6.90;99.90
13808;DHT22;40769;51.512;5.494;2024-01-10T15:20:40;6.80;99.90
13808;DHT22;40769;51.512;5.494;2024-01-10T15:23:06;6.90;99.90
13808;DHT22;40769;51.512;5.494;2024-01-10T15:25:31;6.90;99.90
13808;DHT22;40769;51.512;5.494;2024-01-10T15:27:57;6.90;99.90
13808;DHT22;40769;51.512;5.494;2024-01-10T15:30:24;7.10;99.90
13808;DHT22;40769;51.512;5.494;2024-01-10T15:32:51;6.70;99.90
13808;DHT22;40769;51.512;5.494;2024-01-10T15:35:17;6.80;99.90
13808;DHT22;40769;51.512;5.494;2024-01-10T15:37:44;6.90;99.90
13808;DHT22;40769;51.512;5.494;2024-01-10T15:40:10;7.00;99.90
13808;DHT22;40769;51.512;5.494;2024-01-10T15:42:40;6.90;99.90
13808;DHT22;40769;51.512;5.494;2024-01-10T15:45:08;6.80;99.90
13808;DHT22;40769;51.512;5.494;2024-01-10T15:47:37;6.60;99.90
13808;DHT22;40769;51.512;5.494;2024-01-10T15:50:03;6.50;99.90
13808;DHT22;40769;51.512;5.494;2024-01-10T15:52:29;6.70;99.90